RHO weather

Diagoras Airport
Rodes Island, Dodecanese, Greece

Public forecast

Using degrees Celsius for public forecast. Weather courtesy of forecast.io.

Current aviation weather report (METAR) for Diagoras Airport

Retrieved 2020/02/20 13:20 UTC (32 minutes ago):

LGRP 201320Z 23010KT 180V270 9999 FEW010 FEW018TCU BKN025 17/11 Q1011 NOSIG

Aviation forecast (TAF) for Diagoras Airport

Retrieved 2020/02/20 12:12 UTC (2 hours ago):

TAF TAF LGRP 201100Z 2012/2112 24010KT 9999 FEW010 FEW018TCU SCT030 PROB40 TEMPO 2015/2106 5000 RA SCT010 FEW018TCU BKN025 PROB30 TEMPO 2020/2106 5000 TSRA SCT008 FEW016CB BKN025 BECMG 2107/2109 34010KT